Time;durP1;ratioP1;P1;durP2;ratioP2;P2;SDS_P1;SDS_P2;PMS_P1;PMS_P2;Temp;Humidity;BMP_temperature;BMP_pressure;BME280_temperature;BME280_humidity;BME280_pressure;Samples;Min_cycle;Max_cycle;Signal;HPM_P1;HPM_P2
2023/01/07 00:00:45;;;;;;;;;;;9.60;99.90;;;;;;4855335;29;19924;-72
2023/01/07 00:03:10;;;;;;;;;;;9.60;99.90;;;;;;4859774;29;20028;-72
2023/01/07 00:05:36;;;;;;;;;;;9.60;99.90;;;;;;4857951;29;19932;-72
2023/01/07 00:08:02;;;;;;;;;;;9.60;99.90;;;;;;4864765;29;20464;-72
2023/01/07 00:10:27;;;;;;;;;;;9.60;99.90;;;;;;4862628;29;19927;-72
2023/01/07 00:12:53;;;;;;;;;;;9.60;99.90;;;;;;4828241;29;19982;-72
2023/01/07 00:15:18;;;;;;;;;;;9.70;99.90;;;;;;4861184;29;20003;-71
2023/01/07 00:17:44;;;;;;;;;;;9.70;99.90;;;;;;4840118;29;19935;-71
2023/01/07 00:20:10;;;;;;;;;;;9.70;99.90;;;;;;4861113;29;19924;-71
2023/01/07 00:22:35;;;;;;;;;;;9.70;99.90;;;;;;4861424;29;19927;-72
2023/01/07 00:25:01;;;;;;;;;;;9.70;99.90;;;;;;4844417;29;19939;-71
2023/01/07 00:27:26;;;;;;;;;;;9.70;99.90;;;;;;4846065;29;19930;-71
2023/01/07 00:29:52;;;;;;;;;;;9.70;99.90;;;;;;4845957;29;19934;-71
2023/01/07 00:32:17;;;;;;;;;;;9.70;99.90;;;;;;4845663;29;19928;-71
2023/01/07 00:34:43;;;;;;;;;;;9.70;99.90;;;;;;4860567;29;19927;-71
2023/01/07 00:39:53;;;;;;;;;;;9.70;99.90;;;;;;4851275;29;19928;-72
2023/01/07 00:43:00;;;;;;;;;;;9.70;99.90;;;;;;4858465;29;19924;-72
2023/01/07 00:45:08;;;;;;;;;;;9.70;99.90;;;;;;4853306;29;19928;-72
2023/01/07 00:47:34;;;;;;;;;;;9.70;99.90;;;;;;4861645;29;19924;-72
2023/01/07 00:49:59;;;;;;;;;;;9.60;99.90;;;;;;4861228;29;20297;-72
2023/01/07 00:52:25;;;;;;;;;;;9.60;99.90;;;;;;4858784;29;19924;-72
2023/01/07 00:54:50;;;;;;;;;;;9.60;99.90;;;;;;4873899;29;19924;-72
2023/01/07 00:57:16;;;;;;;;;;;9.60;99.90;;;;;;4845643;29;20392;-72
2023/01/07 00:59:42;;;;;;;;;;;9.60;99.90;;;;;;4845793;29;19924;-72
2023/01/07 01:02:07;;;;;;;;;;;9.70;99.90;;;;;;4857099;29;20000;-72
2023/01/07 01:04:33;;;;;;;;;;;9.60;99.90;;;;;;4860717;29;20399;-72
2023/01/07 01:06:58;;;;;;;;;;;9.70;99.90;;;;;;4859590;29;19923;-72
2023/01/07 01:09:25;;;;;;;;;;;9.70;99.90;;;;;;4864065;29;19935;-72
2023/01/07 01:11:50;;;;;;;;;;;9.70;99.90;;;;;;4858239;29;19935;-72
2023/01/07 01:14:16;;;;;;;;;;;9.60;99.90;;;;;;4857626;29;20404;-72
2023/01/07 01:16:42;;;;;;;;;;;9.70;99.90;;;;;;4857655;29;19924;-72
2023/01/07 01:19:07;;;;;;;;;;;9.60;99.90;;;;;;4860417;29;19928;-72
2023/01/07 01:21:33;;;;;;;;;;;9.60;99.90;;;;;;4859617;29;19931;-72
2023/01/07 01:23:58;;;;;;;;;;;9.70;99.90;;;;;;4864985;29;20300;-72
2023/01/07 01:26:24;;;;;;;;;;;9.60;99.90;;;;;;4847218;29;19928;-72
2023/01/07 01:28:49;;;;;;;;;;;9.60;99.90;;;;;;4861019;29;19983;-72
2023/01/07 01:31:15;;;;;;;;;;;9.70;99.90;;;;;;4860232;29;19931;-72
2023/01/07 01:33:40;;;;;;;;;;;9.70;99.90;;;;;;4845044;29;19964;-72
2023/01/07 01:36:08;;;;;;;;;;;9.70;99.90;;;;;;4844792;29;20444;-72
2023/01/07 01:38:34;;;;;;;;;;;9.60;99.90;;;;;;4861338;29;19923;-72
2023/01/07 01:41:00;;;;;;;;;;;9.60;99.90;;;;;;4831141;29;20538;-72
2023/01/07 01:43:25;;;;;;;;;;;9.60;99.90;;;;;;4846924;29;19939;-72
2023/01/07 01:45:51;;;;;;;;;;;9.70;99.90;;;;;;4860635;29;19950;-72
2023/01/07 01:48:18;;;;;;;;;;;9.70;99.90;;;;;;4845705;29;19959;-72
2023/01/07 01:50:45;;;;;;;;;;;9.70;99.90;;;;;;4860548;29;19947;-72
2023/01/07 01:53:18;;;;;;;;;;;9.70;99.90;;;;;;4862620;29;19928;-72
2023/01/07 01:55:45;;;;;;;;;;;9.70;99.90;;;;;;4862482;29;19931;-72
2023/01/07 01:58:13;;;;;;;;;;;9.70;99.90;;;;;;4862855;29;19946;-72
2023/01/07 02:00:40;;;;;;;;;;;9.70;99.90;;;;;;4846779;29;19924;-72
2023/01/07 02:03:07;;;;;;;;;;;9.70;99.90;;;;;;4847178;29;20448;-72
2023/01/07 02:05:33;;;;;;;;;;;9.70;99.90;;;;;;4845584;29;19935;-72
2023/01/07 02:07:59;;;;;;;;;;;9.70;99.90;;;;;;4850112;29;19995;-72
2023/01/07 02:10:25;;;;;;;;;;;9.70;99.90;;;;;;4862566;29;19979;-72
2023/01/07 02:13:10;;;;;;;;;;;9.70;99.90;;;;;;4848016;29;20239;-72
2023/01/07 02:15:51;;;;;;;;;;;9.70;99.90;;;;;;4862947;29;20394;-72
2023/01/07 02:18:17;;;;;;;;;;;9.70;99.90;;;;;;4848120;29;20384;-72
2023/01/07 02:20:46;;;;;;;;;;;9.70;99.90;;;;;;4862141;29;20392;-72
2023/01/07 02:23:21;;;;;;;;;;;9.70;99.90;;;;;;4862064;29;19988;-72
2023/01/07 02:26:05;;;;;;;;;;;9.70;99.90;;;;;;4862125;29;20300;-72
2023/01/07 02:28:40;;;;;;;;;;;9.70;99.90;;;;;;4863446;29;19953;-72
2023/01/07 02:31:20;;;;;;;;;;;9.70;99.90;;;;;;4862057;29;19988;-72
2023/01/07 02:34:05;;;;;;;;;;;9.70;99.90;;;;;;4862689;29;20360;-72
2023/01/07 02:36:33;;;;;;;;;;;9.60;99.90;;;;;;4872447;29;20389;-72
2023/01/07 02:39:02;;;;;;;;;;;9.60;99.90;;;;;;4847421;29;20380;-72
2023/01/07 02:41:36;;;;;;;;;;;9.70;99.90;;;;;;4866598;29;20206;-72
2023/01/07 02:44:04;;;;;;;;;;;9.70;99.90;;;;;;4843096;29;20011;-72
2023/01/07 02:46:37;;;;;;;;;;;9.70;99.90;;;;;;4862922;29;20487;-72
2023/01/07 02:49:07;;;;;;;;;;;9.70;99.90;;;;;;4848750;29;20432;-72
2023/01/07 02:51:34;;;;;;;;;;;9.70;99.90;;;;;;4861676;29;19988;-72
2023/01/07 02:54:00;;;;;;;;;;;9.70;99.90;;;;;;4846487;29;20018;-72
2023/01/07 02:56:35;;;;;;;;;;;9.80;99.90;;;;;;4846750;29;19978;-72
2023/01/07 02:59:06;;;;;;;;;;;9.80;99.90;;;;;;4846117;29;19934;-72
2023/01/07 03:01:38;;;;;;;;;;;9.80;99.90;;;;;;4862248;29;20292;-72
2023/01/07 03:04:09;;;;;;;;;;;9.80;99.90;;;;;;4861645;29;19924;-72
2023/01/07 03:06:55;;;;;;;;;;;9.90;99.90;;;;;;4845415;29;19975;-72
2023/01/07 03:09:39;;;;;;;;;;;9.80;99.90;;;;;;4844171;29;20022;-72
2023/01/07 03:12:12;;;;;;;;;;;9.90;99.90;;;;;;4845502;29;20768;-72
2023/01/07 03:14:50;;;;;;;;;;;9.90;99.90;;;;;;4859359;29;19985;-72
2023/01/07 03:17:20;;;;;;;;;;;9.90;99.90;;;;;;4842983;29;20162;-72
2023/01/07 03:19:53;;;;;;;;;;;9.90;99.90;;;;;;4844222;29;19938;-72
2023/01/07 03:22:21;;;;;;;;;;;9.90;99.90;;;;;;4860326;29;20372;-72
2023/01/07 03:24:49;;;;;;;;;;;9.90;99.90;;;;;;4859292;29;20177;-72
2023/01/07 03:27:15;;;;;;;;;;;9.80;99.90;;;;;;4870451;29;20363;-72
2023/01/07 03:29:41;;;;;;;;;;;9.80;99.90;;;;;;4848704;29;20373;-72
2023/01/07 03:32:17;;;;;;;;;;;9.80;99.90;;;;;;4844931;29;19935;-72
2023/01/07 03:34:43;;;;;;;;;;;9.80;99.90;;;;;;4843867;29;20230;-72
2023/01/07 03:37:14;;;;;;;;;;;9.90;99.90;;;;;;4860138;29;19949;-72
2023/01/07 03:39:41;;;;;;;;;;;9.80;99.90;;;;;;4844568;29;19931;-72
2023/01/07 03:44:52;;;;;;;;;;;9.80;99.90;;;;;;4860126;29;19931;-72
2023/01/07 03:47:18;;;;;;;;;;;9.80;99.90;;;;;;4859878;29;20006;-72
2023/01/07 03:49:43;;;;;;;;;;;9.80;99.90;;;;;;4860259;29;20321;-72
2023/01/07 03:52:09;;;;;;;;;;;9.90;99.90;;;;;;4844282;29;20304;-72
2023/01/07 03:54:34;;;;;;;;;;;9.90;99.90;;;;;;4833555;29;20010;-72
2023/01/07 03:57:00;;;;;;;;;;;9.90;99.90;;;;;;4859936;29;19927;-72
2023/01/07 03:59:25;;;;;;;;;;;9.90;99.90;;;;;;4859861;29;20412;-72
2023/01/07 04:01:51;;;;;;;;;;;9.90;99.90;;;;;;4859548;29;20014;-72
2023/01/07 04:04:17;;;;;;;;;;;9.90;99.90;;;;;;4845679;29;19927;-72
2023/01/07 04:06:43;;;;;;;;;;;9.90;99.90;;;;;;4860267;29;19924;-72
2023/01/07 04:09:09;;;;;;;;;;;9.90;99.90;;;;;;4859953;29;20275;-72
2023/01/07 04:11:35;;;;;;;;;;;9.90;99.90;;;;;;4847916;29;20349;-72
2023/01/07 04:14:01;;;;;;;;;;;9.90;99.90;;;;;;4844738;29;20022;-72
2023/01/07 04:16:26;;;;;;;;;;;9.90;99.90;;;;;;4828785;29;19929;-72
2023/01/07 04:18:52;;;;;;;;;;;9.80;99.90;;;;;;4860811;29;19963;-72
2023/01/07 04:21:18;;;;;;;;;;;9.80;99.90;;;;;;4842850;29;19992;-72
2023/01/07 04:23:43;;;;;;;;;;;9.80;99.90;;;;;;4860329;29;19927;-72
2023/01/07 04:26:09;;;;;;;;;;;9.80;99.90;;;;;;4858210;29;20395;-72
2023/01/07 04:28:34;;;;;;;;;;;9.80;99.90;;;;;;4845470;29;19924;-72
2023/01/07 04:31:00;;;;;;;;;;;9.80;99.90;;;;;;4860846;29;19928;-72
2023/01/07 04:33:25;;;;;;;;;;;9.80;99.90;;;;;;4861106;29;19932;-72
2023/01/07 04:35:51;;;;;;;;;;;9.80;99.90;;;;;;4842085;29;19952;-72
2023/01/07 04:38:17;;;;;;;;;;;9.70;99.90;;;;;;4845710;29;19976;-72
2023/01/07 04:40:42;;;;;;;;;;;9.70;99.90;;;;;;4858389;29;19924;-72
2023/01/07 04:43:08;;;;;;;;;;;9.70;99.90;;;;;;4830353;29;19934;-72
2023/01/07 04:45:34;;;;;;;;;;;9.70;99.90;;;;;;4842986;29;19930;-72
2023/01/07 04:48:00;;;;;;;;;;;9.70;99.90;;;;;;4845751;29;20343;-72
2023/01/07 04:50:25;;;;;;;;;;;9.70;99.90;;;;;;4846890;29;20175;-72
2023/01/07 04:52:51;;;;;;;;;;;9.60;99.90;;;;;;4850204;29;20572;-72
2023/01/07 04:55:17;;;;;;;;;;;9.60;99.90;;;;;;4848682;29;19930;-72
2023/01/07 04:57:42;;;;;;;;;;;9.60;99.90;;;;;;4863895;29;19924;-72
2023/01/07 05:00:08;;;;;;;;;;;9.60;99.90;;;;;;4831933;29;19927;-72
2023/01/07 05:02:34;;;;;;;;;;;9.60;99.90;;;;;;4847036;29;20415;-72
2023/01/07 05:05:00;;;;;;;;;;;9.60;99.90;;;;;;4857804;29;20376;-72
2023/01/07 05:07:25;;;;;;;;;;;9.60;99.90;;;;;;4862586;29;19931;-72
2023/01/07 05:09:51;;;;;;;;;;;9.60;99.90;;;;;;4843763;29;20397;-72
2023/01/07 05:12:17;;;;;;;;;;;9.60;99.90;;;;;;4846557;29;19931;-72
2023/01/07 05:14:42;;;;;;;;;;;9.60;99.90;;;;;;4863587;29;19979;-72
2023/01/07 05:17:08;;;;;;;;;;;9.70;99.90;;;;;;4861583;29;20015;-72
2023/01/07 05:19:33;;;;;;;;;;;9.70;99.90;;;;;;4832420;29;19923;-72
2023/01/07 05:21:59;;;;;;;;;;;9.60;99.90;;;;;;4847823;29;20299;-72
2023/01/07 05:24:25;;;;;;;;;;;9.60;99.90;;;;;;4863404;29;20440;-72
2023/01/07 05:26:50;;;;;;;;;;;9.60;99.90;;;;;;4844736;29;20342;-72
2023/01/07 05:29:16;;;;;;;;;;;9.60;99.90;;;;;;4856671;29;19931;-72
2023/01/07 05:31:41;;;;;;;;;;;9.50;99.90;;;;;;4847512;29;19924;-72
2023/01/07 05:34:07;;;;;;;;;;;9.50;99.90;;;;;;4839355;29;19931;-72
2023/01/07 05:36:33;;;;;;;;;;;9.50;99.90;;;;;;4833940;29;20377;-72
2023/01/07 05:38:58;;;;;;;;;;;9.40;99.90;;;;;;4862072;29;20022;-72
2023/01/07 05:41:24;;;;;;;;;;;9.50;99.90;;;;;;4859132;29;19925;-72
2023/01/07 05:43:50;;;;;;;;;;;9.40;99.90;;;;;;4860331;29;19967;-72
2023/01/07 05:46:15;;;;;;;;;;;9.40;99.90;;;;;;4847252;29;19959;-72
2023/01/07 05:48:41;;;;;;;;;;;9.40;99.90;;;;;;4846918;29;20305;-72
2023/01/07 05:51:06;;;;;;;;;;;9.30;99.90;;;;;;4825121;29;19940;-72
2023/01/07 05:53:32;;;;;;;;;;;9.30;99.90;;;;;;4862531;29;19927;-72
2023/01/07 05:55:58;;;;;;;;;;;9.30;99.90;;;;;;4856134;29;19924;-72
2023/01/07 05:58:24;;;;;;;;;;;9.30;99.90;;;;;;4845093;29;19930;-72
2023/01/07 06:00:50;;;;;;;;;;;9.30;99.90;;;;;;4848752;29;19939;-72
2023/01/07 06:03:16;;;;;;;;;;;9.20;99.90;;;;;;4852803;29;19928;-72
2023/01/07 06:05:41;;;;;;;;;;;9.20;99.90;;;;;;4862072;29;20372;-72
2023/01/07 06:08:07;;;;;;;;;;;9.20;99.90;;;;;;4865353;29;19927;-72
2023/01/07 06:10:34;;;;;;;;;;;9.10;99.90;;;;;;4855535;29;20010;-72
2023/01/07 06:13:00;;;;;;;;;;;9.10;99.90;;;;;;4861695;29;20022;-72
2023/01/07 06:15:26;;;;;;;;;;;9.10;99.90;;;;;;4856651;29;19928;-72
2023/01/07 06:17:52;;;;;;;;;;;9.10;99.90;;;;;;4840398;29;19935;-72
2023/01/07 06:20:17;;;;;;;;;;;9.10;99.90;;;;;;4855117;29;19935;-72
2023/01/07 06:22:43;;;;;;;;;;;9.10;99.90;;;;;;4860923;29;19924;-72
2023/01/07 06:25:12;;;;;;;;;;;9.10;99.90;;;;;;4846407;29;19934;-72
2023/01/07 06:27:39;;;;;;;;;;;9.10;99.90;;;;;;4857306;29;20016;-72
2023/01/07 06:30:06;;;;;;;;;;;9.10;99.90;;;;;;4855789;29;19924;-72
2023/01/07 06:32:36;;;;;;;;;;;9.00;99.90;;;;;;4838787;29;19923;-72
2023/01/07 06:35:01;;;;;;;;;;;9.00;99.90;;;;;;4860484;29;19932;-72
2023/01/07 06:37:27;;;;;;;;;;;9.00;99.90;;;;;;4854561;29;19931;-72
2023/01/07 06:39:52;;;;;;;;;;;9.00;99.90;;;;;;4846705;29;19938;-72
2023/01/07 06:42:18;;;;;;;;;;;9.00;99.90;;;;;;4860170;29;19923;-72
2023/01/07 06:44:44;;;;;;;;;;;9.00;99.90;;;;;;4849818;29;19955;-72
2023/01/07 06:47:09;;;;;;;;;;;9.00;99.90;;;;;;4846478;29;19924;-72
2023/01/07 06:49:35;;;;;;;;;;;9.00;99.90;;;;;;4844121;29;19924;-72
2023/01/07 06:52:00;;;;;;;;;;;9.00;99.90;;;;;;4843811;29;19991;-72
2023/01/07 06:54:26;;;;;;;;;;;8.90;99.90;;;;;;4844915;29;20682;-72
2023/01/07 06:56:52;;;;;;;;;;;8.90;99.90;;;;;;4861299;29;20003;-72
2023/01/07 06:59:17;;;;;;;;;;;9.00;99.90;;;;;;4861046;29;20361;-72
2023/01/07 07:01:43;;;;;;;;;;;9.00;99.90;;;;;;4853139;29;19958;-72
2023/01/07 07:04:08;;;;;;;;;;;8.90;99.90;;;;;;4846796;29;19923;-72
2023/01/07 07:06:34;;;;;;;;;;;8.90;99.90;;;;;;4839548;29;19939;-72
2023/01/07 07:09:00;;;;;;;;;;;8.90;99.90;;;;;;4858458;29;19989;-72
2023/01/07 07:11:25;;;;;;;;;;;8.90;99.90;;;;;;4830966;29;20419;-72
2023/01/07 07:13:51;;;;;;;;;;;8.90;99.90;;;;;;4857530;29;19935;-72
2023/01/07 07:16:16;;;;;;;;;;;8.90;99.90;;;;;;4870381;29;19976;-72
2023/01/07 07:18:42;;;;;;;;;;;8.90;99.90;;;;;;4855279;29;19931;-72
2023/01/07 07:21:08;;;;;;;;;;;8.90;99.90;;;;;;4839311;29;19935;-72
2023/01/07 07:23:33;;;;;;;;;;;8.90;99.90;;;;;;4846168;29;20344;-72
2023/01/07 07:25:59;;;;;;;;;;;8.90;99.90;;;;;;4855136;29;19984;-73
2023/01/07 07:28:25;;;;;;;;;;;8.90;99.90;;;;;;4843459;29;19956;-72
2023/01/07 07:30:50;;;;;;;;;;;8.80;99.90;;;;;;4854824;29;19978;-72
2023/01/07 07:33:17;;;;;;;;;;;8.80;99.90;;;;;;4855997;29;20428;-72
2023/01/07 07:35:43;;;;;;;;;;;8.80;99.90;;;;;;4845671;29;19923;-72
2023/01/07 07:38:09;;;;;;;;;;;8.80;99.90;;;;;;4846735;29;20250;-72
2023/01/07 07:40:34;;;;;;;;;;;8.80;99.90;;;;;;4861580;29;20059;-72
2023/01/07 07:43:00;;;;;;;;;;;8.80;99.90;;;;;;4861456;29;20142;-72
2023/01/07 07:45:26;;;;;;;;;;;8.70;99.90;;;;;;4845308;29;20436;-72
2023/01/07 07:47:51;;;;;;;;;;;8.70;99.90;;;;;;4862573;29;19924;-72
2023/01/07 07:50:17;;;;;;;;;;;8.80;99.90;;;;;;4861066;29;19924;-72
2023/01/07 07:52:43;;;;;;;;;;;8.80;99.90;;;;;;4851265;29;19930;-72
2023/01/07 07:55:10;;;;;;;;;;;8.80;99.90;;;;;;4843886;29;19985;-72
2023/01/07 07:57:37;;;;;;;;;;;8.80;99.90;;;;;;4860440;29;19978;-72
2023/01/07 08:00:03;;;;;;;;;;;8.80;99.90;;;;;;4858872;29;19928;-73
2023/01/07 08:02:28;;;;;;;;;;;8.80;99.90;;;;;;4842254;29;20298;-73
2023/01/07 08:04:54;;;;;;;;;;;8.80;99.90;;;;;;4870588;29;19991;-72
2023/01/07 08:07:20;;;;;;;;;;;8.70;99.90;;;;;;4859751;29;19982;-72
2023/01/07 08:09:45;;;;;;;;;;;8.70;99.90;;;;;;4856963;29;20300;-72
2023/01/07 08:12:13;;;;;;;;;;;8.70;99.90;;;;;;4861357;29;20471;-72
2023/01/07 08:14:38;;;;;;;;;;;8.70;99.90;;;;;;4859767;29;20310;-72
2023/01/07 08:17:04;;;;;;;;;;;8.60;99.90;;;;;;4853954;29;20063;-72
2023/01/07 08:19:29;;;;;;;;;;;8.60;99.90;;;;;;4830419;29;20436;-72
2023/01/07 08:21:55;;;;;;;;;;;8.60;99.90;;;;;;4834408;29;20016;-72
2023/01/07 08:24:21;;;;;;;;;;;8.60;99.90;;;;;;4860970;29;20022;-73
2023/01/07 08:26:46;;;;;;;;;;;8.60;99.90;;;;;;4861367;29;20018;-72
2023/01/07 08:29:15;;;;;;;;;;;8.60;99.90;;;;;;4873853;29;19932;-72
2023/01/07 08:31:41;;;;;;;;;;;8.60;99.90;;;;;;4853246;29;20403;-73
2023/01/07 08:34:06;;;;;;;;;;;8.60;99.90;;;;;;4855341;29;20408;-72
2023/01/07 08:36:32;;;;;;;;;;;8.60;99.90;;;;;;4858417;29;19924;-72
2023/01/07 08:38:57;;;;;;;;;;;8.60;99.90;;;;;;4854672;29;19924;-73
2023/01/07 08:41:23;;;;;;;;;;;8.60;99.90;;;;;;4862262;29;20354;-72
2023/01/07 08:43:49;;;;;;;;;;;8.70;99.90;;;;;;4863051;29;19935;-72
2023/01/07 08:46:15;;;;;;;;;;;8.70;99.90;;;;;;4851381;29;19928;-72
2023/01/07 08:48:40;;;;;;;;;;;8.70;99.90;;;;;;4854862;29;19933;-72
2023/01/07 08:51:06;;;;;;;;;;;8.70;99.90;;;;;;4846778;29;20361;-72
2023/01/07 08:53:32;;;;;;;;;;;8.70;99.90;;;;;;4845614;29;20393;-72
2023/01/07 08:55:57;;;;;;;;;;;8.80;99.90;;;;;;4863799;29;19924;-72
2023/01/07 08:58:24;;;;;;;;;;;8.80;99.90;;;;;;4853377;29;19934;-72
2023/01/07 09:00:50;;;;;;;;;;;8.80;99.90;;;;;;4857387;29;19928;-72
2023/01/07 09:03:16;;;;;;;;;;;8.80;99.90;;;;;;4860553;29;19976;-72
2023/01/07 09:05:41;;;;;;;;;;;8.80;99.90;;;;;;4858990;29;19924;-72
2023/01/07 09:08:07;;;;;;;;;;;8.80;99.90;;;;;;4856185;29;20302;-72
2023/01/07 09:10:33;;;;;;;;;;;8.80;99.90;;;;;;4859021;29;19931;-72
2023/01/07 09:12:58;;;;;;;;;;;8.80;99.90;;;;;;4852702;29;19928;-72
2023/01/07 09:15:24;;;;;;;;;;;8.70;99.90;;;;;;4858031;29;19966;-72
2023/01/07 09:17:50;;;;;;;;;;;8.70;99.90;;;;;;4845530;29;19949;-72
2023/01/07 09:20:15;;;;;;;;;;;8.70;99.90;;;;;;4857192;29;19939;-72
2023/01/07 09:22:41;;;;;;;;;;;8.80;99.90;;;;;;4845798;29;20360;-72
2023/01/07 09:25:07;;;;;;;;;;;8.70;99.90;;;;;;4859005;29;20337;-72
2023/01/07 09:27:33;;;;;;;;;;;8.80;99.90;;;;;;4878321;29;20035;-72
2023/01/07 09:29:58;;;;;;;;;;;8.70;99.90;;;;;;4851484;29;19928;-73
2023/01/07 09:32:24;;;;;;;;;;;8.70;99.90;;;;;;4845189;29;19923;-73
2023/01/07 09:34:50;;;;;;;;;;;8.80;99.90;;;;;;4847413;29;19928;-73
2023/01/07 09:37:16;;;;;;;;;;;8.80;99.90;;;;;;4860511;29;19988;-73
2023/01/07 09:39:41;;;;;;;;;;;8.80;99.90;;;;;;4861753;29;19934;-73
2023/01/07 09:42:12;;;;;;;;;;;8.80;99.90;;;;;;4854066;29;19931;-73
2023/01/07 09:44:43;;;;;;;;;;;8.70;99.90;;;;;;4853274;29;19924;-73
2023/01/07 09:47:10;;;;;;;;;;;8.80;99.90;;;;;;4855568;29;20002;-72
2023/01/07 09:49:39;;;;;;;;;;;8.80;99.90;;;;;;4861006;29;20138;-72
2023/01/07 09:52:26;;;;;;;;;;;8.80;99.90;;;;;;4858764;29;19952;-72
2023/01/07 09:54:54;;;;;;;;;;;8.90;99.90;;;;;;4855522;29;19935;-72
2023/01/07 09:57:19;;;;;;;;;;;8.90;99.90;;;;;;4859047;29;20428;-72
2023/01/07 09:59:45;;;;;;;;;;;9.00;99.90;;;;;;4855984;29;19927;-72
2023/01/07 10:02:36;;;;;;;;;;;9.10;99.90;;;;;;4859303;29;19930;-72
2023/01/07 10:05:01;;;;;;;;;;;9.10;99.90;;;;;;4859850;29;20380;-72
2023/01/07 10:07:36;;;;;;;;;;;9.10;99.90;;;;;;4859450;29;19994;-72
2023/01/07 10:10:05;;;;;;;;;;;9.10;99.90;;;;;;4851458;29;19934;-72
2023/01/07 10:12:45;;;;;;;;;;;9.20;99.90;;;;;;4858808;29;19948;-72
2023/01/07 10:15:22;;;;;;;;;;;9.20;99.90;;;;;;4859704;29;19931;-72
2023/01/07 10:18:17;;;;;;;;;;;9.20;99.90;;;;;;4854371;29;19930;-72
2023/01/07 10:20:48;;;;;;;;;;;9.20;99.90;;;;;;4861228;29;19924;-72
2023/01/07 10:23:24;;;;;;;;;;;9.20;99.90;;;;;;4851719;29;19925;-72
2023/01/07 10:25:52;;;;;;;;;;;9.30;99.90;;;;;;4854924;29;19967;-72
2023/01/07 10:28:24;;;;;;;;;;;9.30;99.90;;;;;;4854723;29;19975;-72
2023/01/07 10:30:52;;;;;;;;;;;9.30;99.90;;;;;;4860253;29;19930;-72
2023/01/07 10:33:24;;;;;;;;;;;9.40;99.90;;;;;;4838577;29;20011;-72
2023/01/07 10:35:58;;;;;;;;;;;9.40;99.90;;;;;;4844034;29;19923;-72
2023/01/07 10:38:24;;;;;;;;;;;9.50;99.90;;;;;;4856888;29;19934;-72
2023/01/07 10:40:57;;;;;;;;;;;9.50;99.90;;;;;;4857557;29;19924;-72
2023/01/07 10:43:23;;;;;;;;;;;9.50;99.90;;;;;;4860573;29;19927;-72
2023/01/07 10:45:59;;;;;;;;;;;9.60;99.90;;;;;;4852442;29;20376;-72
2023/01/07 10:48:24;;;;;;;;;;;9.60;99.90;;;;;;4858679;29;19931;-72
2023/01/07 10:50:53;;;;;;;;;;;9.60;99.90;;;;;;4859915;29;20007;-72
2023/01/07 10:53:18;;;;;;;;;;;9.60;99.90;;;;;;4856546;29;19928;-72
2023/01/07 10:55:50;;;;;;;;;;;9.60;99.90;;;;;;4857717;29;20377;-72
2023/01/07 10:58:16;;;;;;;;;;;9.60;99.90;;;;;;4858796;29;19928;-72
2023/01/07 11:00:45;;;;;;;;;;;9.60;99.90;;;;;;4853883;29;19935;-72
2023/01/07 11:03:21;;;;;;;;;;;9.70;99.90;;;;;;4858415;29;20027;-72
2023/01/07 11:05:49;;;;;;;;;;;9.90;99.90;;;;;;4854632;29;19932;-72
2023/01/07 11:08:48;;;;;;;;;;;10.00;99.90;;;;;;4866410;29;19925;-72
2023/01/07 11:11:15;;;;;;;;;;;10.10;99.90;;;;;;4806725;29;19969;-72
2023/01/07 11:13:42;;;;;;;;;;;10.20;99.90;;;;;;4860053;29;19928;-72
2023/01/07 11:16:09;;;;;;;;;;;10.30;99.90;;;;;;4846033;29;19938;-72
2023/01/07 11:18:34;;;;;;;;;;;10.30;99.90;;;;;;4850932;29;19924;-72
2023/01/07 11:21:00;;;;;;;;;;;10.40;99.90;;;;;;4861684;29;19995;-72
2023/01/07 11:23:36;;;;;;;;;;;10.40;99.90;;;;;;4854065;29;19927;-72
2023/01/07 11:26:05;;;;;;;;;;;10.40;99.90;;;;;;4855280;29;19935;-72
2023/01/07 11:28:31;;;;;;;;;;;10.40;99.90;;;;;;4848535;29;19988;-72
2023/01/07 11:30:58;;;;;;;;;;;10.40;99.90;;;;;;4844622;29;19979;-72
2023/01/07 11:33:41;;;;;;;;;;;10.40;99.90;;;;;;4853543;29;19947;-72
2023/01/07 11:36:07;;;;;;;;;;;10.30;99.90;;;;;;4873342;29;19967;-73
2023/01/07 11:38:35;;;;;;;;;;;10.30;99.90;;;;;;4846388;29;19927;-73
2023/01/07 11:41:01;;;;;;;;;;;10.30;99.90;;;;;;4846742;29;19979;-73
2023/01/07 11:43:47;;;;;;;;;;;10.20;99.90;;;;;;4845830;29;20007;-73
2023/01/07 11:46:13;;;;;;;;;;;10.20;99.90;;;;;;4845966;29;20358;-73
2023/01/07 11:48:45;;;;;;;;;;;10.20;99.90;;;;;;4861328;29;19978;-73
2023/01/07 11:51:11;;;;;;;;;;;10.20;99.90;;;;;;4851961;29;19924;-73
2023/01/07 11:53:42;;;;;;;;;;;10.20;99.90;;;;;;4854633;29;20022;-73
2023/01/07 11:56:20;;;;;;;;;;;10.20;99.90;;;;;;4847611;29;19928;-73
2023/01/07 11:58:46;;;;;;;;;;;10.10;99.90;;;;;;4864269;29;19946;-73
2023/01/07 12:01:14;;;;;;;;;;;10.10;99.90;;;;;;4850425;29;19923;-73
2023/01/07 12:03:42;;;;;;;;;;;10.10;99.90;;;;;;4864435;29;20337;-73
2023/01/07 12:06:10;;;;;;;;;;;10.00;99.90;;;;;;4864705;29;19931;-73
2023/01/07 12:08:39;;;;;;;;;;;10.10;99.90;;;;;;4858489;29;19932;-73
2023/01/07 12:11:07;;;;;;;;;;;10.00;99.90;;;;;;4845745;29;19996;-73
2023/01/07 12:13:34;;;;;;;;;;;10.00;99.90;;;;;;4838080;29;19956;-74
2023/01/07 12:16:01;;;;;;;;;;;10.10;99.90;;;;;;4865086;29;20000;-73
2023/01/07 12:18:39;;;;;;;;;;;10.20;99.90;;;;;;4845886;29;19928;-73
2023/01/07 12:21:23;;;;;;;;;;;10.20;99.90;;;;;;4865224;29;20296;-73
2023/01/07 12:23:52;;;;;;;;;;;10.30;99.90;;;;;;4874376;29;19949;-73
2023/01/07 12:26:44;;;;;;;;;;;10.30;99.90;;;;;;4858161;29;20048;-73
2023/01/07 12:29:28;;;;;;;;;;;10.40;99.90;;;;;;4841236;29;19964;-73
2023/01/07 12:31:57;;;;;;;;;;;10.40;99.90;;;;;;4851817;29;19980;-73
2023/01/07 12:34:38;;;;;;;;;;;10.40;99.90;;;;;;4854132;29;19936;-73
2023/01/07 12:37:08;;;;;;;;;;;10.50;99.90;;;;;;4854269;29;20296;-73
2023/01/07 12:39:36;;;;;;;;;;;10.40;99.90;;;;;;4856693;29;19924;-73
2023/01/07 12:42:05;;;;;;;;;;;10.40;99.90;;;;;;4863722;29;20273;-73
2023/01/07 12:44:33;;;;;;;;;;;10.40;99.90;;;;;;4850411;29;19959;-73
2023/01/07 12:47:02;;;;;;;;;;;10.40;99.90;;;;;;4863203;29;20356;-73
2023/01/07 12:49:30;;;;;;;;;;;10.40;99.90;;;;;;4842658;29;20003;-73
2023/01/07 12:52:01;;;;;;;;;;;10.50;99.90;;;;;;4862266;29;19931;-73
2023/01/07 12:54:41;;;;;;;;;;;10.60;99.90;;;;;;4842349;29;20387;-73
2023/01/07 12:57:10;;;;;;;;;;;10.60;99.90;;;;;;4867754;29;19940;-73
2023/01/07 12:59:39;;;;;;;;;;;10.60;99.90;;;;;;4860459;29;20266;-73
2023/01/07 13:02:12;;;;;;;;;;;10.60;99.90;;;;;;4863389;29;20301;-73
2023/01/07 13:05:04;;;;;;;;;;;10.60;99.90;;;;;;4849783;29;19927;-73
2023/01/07 13:07:39;;;;;;;;;;;10.50;99.90;;;;;;4863943;29;19954;-73
2023/01/07 13:10:11;;;;;;;;;;;10.40;99.90;;;;;;4867338;29;19953;-73
2023/01/07 13:12:46;;;;;;;;;;;10.40;99.90;;;;;;4841086;29;19928;-73
2023/01/07 13:15:29;;;;;;;;;;;10.40;99.90;;;;;;4857937;29;19935;-73
2023/01/07 13:18:01;;;;;;;;;;;10.40;99.90;;;;;;4848811;29;19924;-73
2023/01/07 13:20:27;;;;;;;;;;;10.30;99.90;;;;;;4853156;29;20501;-74
2023/01/07 13:22:53;;;;;;;;;;;10.20;99.90;;;;;;4855830;29;19927;-74
2023/01/07 13:25:25;;;;;;;;;;;10.20;99.90;;;;;;4836455;29;19935;-73
2023/01/07 13:28:03;;;;;;;;;;;10.20;99.90;;;;;;4879869;29;19924;-73
2023/01/07 13:30:33;;;;;;;;;;;10.20;99.90;;;;;;4848998;29;19931;-73
2023/01/07 13:33:10;;;;;;;;;;;10.10;99.90;;;;;;4845620;29;19972;-73
2023/01/07 13:35:36;;;;;;;;;;;10.10;99.90;;;;;;4847336;29;19982;-73
2023/01/07 13:38:20;;;;;;;;;;;10.10;99.90;;;;;;4857544;29;19974;-73
2023/01/07 13:41:06;;;;;;;;;;;10.10;99.90;;;;;;4872979;29;19928;-73
2023/01/07 13:43:50;;;;;;;;;;;10.10;99.90;;;;;;4860151;29;19938;-74
2023/01/07 13:46:18;;;;;;;;;;;10.10;99.90;;;;;;4863713;29;19930;-74
2023/01/07 13:48:48;;;;;;;;;;;10.00;99.90;;;;;;4847476;29;20301;-74
2023/01/07 13:51:15;;;;;;;;;;;10.00;99.90;;;;;;4840555;29;20440;-73
2023/01/07 13:53:44;;;;;;;;;;;9.90;99.90;;;;;;4844855;29;19932;-73
2023/01/07 13:56:16;;;;;;;;;;;9.80;99.90;;;;;;4847193;29;19955;-72
2023/01/07 13:58:45;;;;;;;;;;;9.80;99.90;;;;;;4850858;29;19982;-73
2023/01/07 14:01:12;;;;;;;;;;;9.80;99.90;;;;;;4849774;29;19924;-73
2023/01/07 14:03:41;;;;;;;;;;;9.70;99.90;;;;;;4854039;29;20364;-73
2023/01/07 14:06:19;;;;;;;;;;;9.70;99.90;;;;;;4848439;29;20179;-73
2023/01/07 14:08:46;;;;;;;;;;;9.70;99.90;;;;;;4864274;29;20246;-72
2023/01/07 14:11:12;;;;;;;;;;;9.70;99.90;;;;;;4862726;29;20006;-73
2023/01/07 14:13:37;;;;;;;;;;;9.70;99.90;;;;;;4845986;29;19992;-73
2023/01/07 14:16:09;;;;;;;;;;;9.60;99.90;;;;;;4848726;29;19924;-73
2023/01/07 14:18:47;;;;;;;;;;;9.60;99.90;;;;;;4853741;29;19935;-73
2023/01/07 14:21:42;;;;;;;;;;;9.60;99.90;;;;;;4854673;29;19994;-73
2023/01/07 14:24:26;;;;;;;;;;;9.50;99.90;;;;;;4855393;29;20014;-74
2023/01/07 14:27:06;;;;;;;;;;;9.50;99.90;;;;;;4848289;29;19986;-73
2023/01/07 14:29:31;;;;;;;;;;;9.50;99.90;;;;;;4859871;29;19967;-73
2023/01/07 14:32:29;;;;;;;;;;;9.50;99.90;;;;;;4846555;29;19974;-73
2023/01/07 14:35:10;;;;;;;;;;;9.50;99.90;;;;;;4857620;29;19960;-73
2023/01/07 14:37:37;;;;;;;;;;;9.40;99.90;;;;;;4864111;29;19928;-73
2023/01/07 14:40:21;;;;;;;;;;;9.40;99.90;;;;;;4859282;29;19959;-73
2023/01/07 14:42:47;;;;;;;;;;;9.40;99.90;;;;;;4865928;29;19927;-73